Time;durP1;ratioP1;P1;durP2;ratioP2;P2;SDS_P1;SDS_P2;PMS_P1;PMS_P2;Temp;Humidity;BMP_temperature;BMP_pressure;BME280_temperature;BME280_humidity;BME280_pressure;Samples;Min_cycle;Max_cycle;Signal;HPM_P1;HPM_P2
2023/09/23 00:01:25;;;;;;;1.10;0.30;;;;;;;;;;5089968;28;20070;-64
2023/09/23 00:03:53;;;;;;;0.85;0.40;;;;;;;;;;5087100;28;20543;-64
2023/09/23 00:06:21;;;;;;;1.08;0.50;;;;;;;;;;5087745;28;20525;-64
2023/09/23 00:08:49;;;;;;;1.30;0.50;;;;;;;;;;5085942;28;20052;-64
2023/09/23 00:11:16;;;;;;;2.03;0.57;;;;;;;;;;5089109;28;20044;-64
2023/09/23 00:13:43;;;;;;;1.55;0.40;;;;;;;;;;5081828;28;20055;-64
2023/09/23 00:16:15;;;;;;;0.73;0.50;;;;;;;;;;5080821;28;20399;-64
2023/09/23 00:18:43;;;;;;;3.45;0.60;;;;;;;;;;5078104;28;20083;-64
2023/09/23 00:21:11;;;;;;;3.80;0.95;;;;;;;;;;5088970;28;20044;-64
2023/09/23 00:23:40;;;;;;;0.68;0.50;;;;;;;;;;5084314;28;20396;-64
2023/09/23 00:26:08;;;;;;;2.42;0.70;;;;;;;;;;5085994;28;20051;-64
2023/09/23 00:28:35;;;;;;;1.52;0.70;;;;;;;;;;5086540;28;20048;-65
2023/09/23 00:31:09;;;;;;;3.13;0.60;;;;;;;;;;5081639;28;20071;-64
2023/09/23 00:33:37;;;;;;;0.57;0.45;;;;;;;;;;5067451;28;20058;-64
2023/09/23 00:36:05;;;;;;;1.00;0.70;;;;;;;;;;5083042;28;20047;-64
2023/09/23 00:38:33;;;;;;;1.60;0.80;;;;;;;;;;5088267;28;20048;-64
2023/09/23 00:41:01;;;;;;;1.98;0.60;;;;;;;;;;5086250;28;20052;-65
2023/09/23 00:43:29;;;;;;;1.27;0.65;;;;;;;;;;5073180;28;20056;-64
2023/09/23 00:45:56;;;;;;;1.35;0.50;;;;;;;;;;5088334;28;20127;-64
2023/09/23 00:48:24;;;;;;;1.27;0.40;;;;;;;;;;5078255;28;20066;-64
2023/09/23 00:50:54;;;;;;;0.85;0.65;;;;;;;;;;5086069;28;20067;-64
2023/09/23 00:53:23;;;;;;;0.75;0.50;;;;;;;;;;5086099;28;20052;-64
2023/09/23 00:55:54;;;;;;;1.45;0.40;;;;;;;;;;5087066;28;20051;-64
2023/09/23 00:58:26;;;;;;;1.60;0.68;;;;;;;;;;5086061;28;20041;-64
2023/09/23 01:00:55;;;;;;;1.30;0.60;;;;;;;;;;5090826;28;20052;-64
2023/09/23 01:03:22;;;;;;;0.80;0.50;;;;;;;;;;5088829;28;20053;-65
2023/09/23 01:05:50;;;;;;;2.15;0.70;;;;;;;;;;5089994;28;20132;-64
2023/09/23 01:08:19;;;;;;;1.92;0.70;;;;;;;;;;5088343;28;20044;-64
2023/09/23 01:10:47;;;;;;;2.38;0.90;;;;;;;;;;5093686;28;20047;-64
2023/09/23 01:13:14;;;;;;;1.52;0.65;;;;;;;;;;5089903;28;20558;-64
2023/09/23 01:15:46;;;;;;;2.40;0.95;;;;;;;;;;5087502;28;20499;-65
2023/09/23 01:18:14;;;;;;;3.97;0.90;;;;;;;;;;5087691;28;20067;-64
2023/09/23 01:20:42;;;;;;;1.15;0.75;;;;;;;;;;5088722;28;20055;-64
2023/09/23 01:23:12;;;;;;;3.95;1.00;;;;;;;;;;5091542;28;20503;-65
2023/09/23 01:25:39;;;;;;;4.53;1.20;;;;;;;;;;5090848;28;20052;-64
2023/09/23 01:28:11;;;;;;;3.22;1.30;;;;;;;;;;5093591;28;20052;-64
2023/09/23 01:30:39;;;;;;;2.10;1.30;;;;;;;;;;5087804;28;20039;-64
2023/09/23 01:33:07;;;;;;;2.08;1.23;;;;;;;;;;5087920;28;20131;-64
2023/09/23 01:35:34;;;;;;;4.03;1.77;;;;;;;;;;5090641;28;20058;-65
2023/09/23 01:38:05;;;;;;;3.53;1.50;;;;;;;;;;5091233;28;20063;-64
2023/09/23 01:40:33;;;;;;;2.45;1.60;;;;;;;;;;5087490;28;20129;-64
2023/09/23 01:43:01;;;;;;;2.60;1.90;;;;;;;;;;5079471;28;20052;-64
2023/09/23 01:45:30;;;;;;;5.60;1.77;;;;;;;;;;5090164;28;20062;-64
2023/09/23 01:47:57;;;;;;;4.22;2.00;;;;;;;;;;5092357;28;20360;-64
2023/09/23 01:50:25;;;;;;;3.45;1.80;;;;;;;;;;5084777;28;20104;-64
2023/09/23 01:52:52;;;;;;;6.57;2.10;;;;;;;;;;5089892;28;20048;-64
2023/09/23 01:55:20;;;;;;;3.25;1.90;;;;;;;;;;5087895;28;20048;-64
2023/09/23 01:57:49;;;;;;;4.60;1.95;;;;;;;;;;5089213;28;20052;-65
2023/09/23 02:00:18;;;;;;;3.80;2.28;;;;;;;;;;5080367;28;21408;-64
2023/09/23 02:02:45;;;;;;;4.78;2.42;;;;;;;;;;5084707;28;20508;-65
2023/09/23 02:05:13;;;;;;;3.42;2.35;;;;;;;;;;5087265;28;20075;-64
2023/09/23 02:07:41;;;;;;;3.92;2.50;;;;;;;;;;5087584;28;20090;-65
2023/09/23 02:10:09;;;;;;;4.15;2.30;;;;;;;;;;5091569;28;20058;-64
2023/09/23 02:12:36;;;;;;;3.67;2.47;;;;;;;;;;5090238;28;20051;-65
2023/09/23 02:15:06;;;;;;;2.83;2.25;;;;;;;;;;5088040;28;20056;-65
2023/09/23 02:17:35;;;;;;;5.18;2.47;;;;;;;;;;5083859;28;20517;-65
2023/09/23 02:20:05;;;;;;;4.05;2.38;;;;;;;;;;5091706;28;20131;-64
2023/09/23 02:22:32;;;;;;;4.63;2.60;;;;;;;;;;5084900;28;20135;-64
2023/09/23 02:25:00;;;;;;;4.53;2.55;;;;;;;;;;5091980;28;20051;-64
2023/09/23 02:27:27;;;;;;;4.00;2.58;;;;;;;;;;5062790;28;20135;-64
2023/09/23 02:29:54;;;;;;;6.28;2.45;;;;;;;;;;5091786;28;20126;-65
2023/09/23 02:32:23;;;;;;;5.25;2.67;;;;;;;;;;5083591;28;20063;-65
2023/09/23 02:34:50;;;;;;;4.95;2.78;;;;;;;;;;5091164;28;20059;-65
2023/09/23 02:37:17;;;;;;;5.60;2.65;;;;;;;;;;5067152;28;20411;-64
2023/09/23 02:39:45;;;;;;;4.05;2.50;;;;;;;;;;5085014;28;20056;-64
2023/09/23 02:42:12;;;;;;;7.78;2.80;;;;;;;;;;5085489;28;20043;-64
2023/09/23 02:44:40;;;;;;;3.53;2.53;;;;;;;;;;5083401;28;20048;-64
2023/09/23 02:47:07;;;;;;;5.38;2.65;;;;;;;;;;5086054;28;20051;-64
2023/09/23 02:49:35;;;;;;;5.32;2.40;;;;;;;;;;5088974;28;20044;-65
2023/09/23 02:52:05;;;;;;;4.47;2.80;;;;;;;;;;5084008;28;20040;-65
2023/09/23 02:54:32;;;;;;;5.30;2.90;;;;;;;;;;5082359;28;20144;-65
2023/09/23 02:57:00;;;;;;;6.13;2.67;;;;;;;;;;5091253;28;20063;-65
2023/09/23 02:59:31;;;;;;;4.28;2.20;;;;;;;;;;5087705;28;20048;-65
2023/09/23 03:02:00;;;;;;;3.78;2.42;;;;;;;;;;5077315;28;20048;-64
2023/09/23 03:04:29;;;;;;;4.90;2.88;;;;;;;;;;5089142;28;20079;-64
2023/09/23 03:07:00;;;;;;;3.60;2.55;;;;;;;;;;5096565;28;20051;-65
2023/09/23 03:09:32;;;;;;;4.10;2.38;;;;;;;;;;5093289;28;20119;-65
2023/09/23 03:12:00;;;;;;;10.32;2.50;;;;;;;;;;5089761;28;20048;-65
2023/09/23 03:14:36;;;;;;;4.55;2.78;;;;;;;;;;5081756;28;20043;-65
2023/09/23 03:17:03;;;;;;;4.18;2.50;;;;;;;;;;5092938;28;20052;-65
2023/09/23 03:19:32;;;;;;;6.85;2.63;;;;;;;;;;5079177;28;20393;-65
2023/09/23 03:22:01;;;;;;;4.25;2.30;;;;;;;;;;5089402;28;20122;-65
2023/09/23 03:24:29;;;;;;;4.15;2.50;;;;;;;;;;5083503;28;20048;-65
2023/09/23 03:26:58;;;;;;;3.90;1.98;;;;;;;;;;5088025;28;20052;-65
2023/09/23 03:29:28;;;;;;;3.47;2.00;;;;;;;;;;5084966;28;20044;-65
2023/09/23 03:31:55;;;;;;;4.22;2.08;;;;;;;;;;5091862;28;20040;-65
2023/09/23 03:34:23;;;;;;;3.83;1.95;;;;;;;;;;5082675;28;20056;-65
2023/09/23 03:36:53;;;;;;;4.78;2.25;;;;;;;;;;5083829;28;20052;-65
2023/09/23 03:39:22;;;;;;;4.90;2.20;;;;;;;;;;5073297;28;20090;-64
2023/09/23 03:41:49;;;;;;;2.42;1.58;;;;;;;;;;5098168;28;20044;-64
2023/09/23 03:44:16;;;;;;;2.28;1.50;;;;;;;;;;5087626;28;20510;-64
2023/09/23 03:46:44;;;;;;;3.45;1.80;;;;;;;;;;5084351;28;20053;-65
2023/09/23 03:49:11;;;;;;;5.43;1.67;;;;;;;;;;5092856;28;20094;-65
2023/09/23 03:51:38;;;;;;;4.15;1.63;;;;;;;;;;5092678;28;20067;-64
2023/09/23 03:54:06;;;;;;;3.53;1.70;;;;;;;;;;5095647;28;20050;-64
2023/09/23 03:56:35;;;;;;;3.10;1.50;;;;;;;;;;5087304;28;20052;-65
2023/09/23 03:59:06;;;;;;;3.30;1.60;;;;;;;;;;5091070;28;20418;-65
2023/09/23 04:01:33;;;;;;;5.07;2.03;;;;;;;;;;5080861;28;20040;-64
2023/09/23 04:04:01;;;;;;;3.20;1.63;;;;;;;;;;5089008;28;20058;-65
2023/09/23 04:06:28;;;;;;;3.42;1.67;;;;;;;;;;5085136;28;20056;-65
2023/09/23 04:08:58;;;;;;;6.22;1.77;;;;;;;;;;5076501;28;20055;-65
2023/09/23 04:11:26;;;;;;;3.25;1.67;;;;;;;;;;5084426;28;20039;-64
2023/09/23 04:13:54;;;;;;;3.67;2.28;;;;;;;;;;5063598;28;20057;-65
2023/09/23 04:16:22;;;;;;;3.22;2.10;;;;;;;;;;5084114;28;20056;-65
2023/09/23 04:18:51;;;;;;;5.05;2.17;;;;;;;;;;5066546;28;20059;-65
2023/09/23 04:21:21;;;;;;;5.68;2.00;;;;;;;;;;5081208;28;20089;-65
2023/09/23 04:23:49;;;;;;;4.00;1.98;;;;;;;;;;5086898;28;20177;-65
2023/09/23 04:26:21;;;;;;;3.20;1.85;;;;;;;;;;5091996;28;20076;-65
2023/09/23 04:28:48;;;;;;;3.40;2.20;;;;;;;;;;5085075;28;20050;-65
2023/09/23 04:31:18;;;;;;;4.70;2.10;;;;;;;;;;5087026;28;20453;-65
2023/09/23 04:33:45;;;;;;;3.67;2.40;;;;;;;;;;5083975;28;20141;-65
2023/09/23 04:36:12;;;;;;;3.85;2.60;;;;;;;;;;5083458;28;20048;-65
2023/09/23 04:38:40;;;;;;;3.53;2.30;;;;;;;;;;5087564;28;20075;-65
2023/09/23 04:41:07;;;;;;;4.53;2.80;;;;;;;;;;5075569;28;20051;-65
2023/09/23 04:43:34;;;;;;;5.20;3.15;;;;;;;;;;5085509;28;20047;-65
2023/09/23 04:46:02;;;;;;;4.85;3.38;;;;;;;;;;5087180;28;20060;-65
2023/09/23 04:48:31;;;;;;;6.30;3.47;;;;;;;;;;5076009;28;20051;-65
2023/09/23 04:50:58;;;;;;;6.10;3.78;;;;;;;;;;5088432;28;20048;-65
2023/09/23 04:53:27;;;;;;;7.60;4.10;;;;;;;;;;5086755;28;20127;-65
2023/09/23 04:55:54;;;;;;;8.93;4.13;;;;;;;;;;5082390;28;20048;-65
2023/09/23 04:58:21;;;;;;;8.25;4.47;;;;;;;;;;5082782;28;20043;-65
2023/09/23 05:00:48;;;;;;;5.32;4.10;;;;;;;;;;5088876;28;20048;-65
2023/09/23 05:03:16;;;;;;;8.20;4.13;;;;;;;;;;5091496;28;20044;-65
2023/09/23 05:05:45;;;;;;;6.78;4.70;;;;;;;;;;5085678;28;20060;-65
2023/09/23 05:08:12;;;;;;;6.47;4.25;;;;;;;;;;5078950;28;20510;-65
2023/09/23 05:10:41;;;;;;;6.57;4.35;;;;;;;;;;5069887;28;20066;-66
2023/09/23 05:13:08;;;;;;;7.68;4.68;;;;;;;;;;5076528;28;20049;-66
2023/09/23 05:15:35;;;;;;;7.00;4.70;;;;;;;;;;5078611;28;20101;-66
2023/09/23 05:18:03;;;;;;;6.68;4.70;;;;;;;;;;5095159;28;20395;-66
2023/09/23 05:20:30;;;;;;;7.63;4.35;;;;;;;;;;5086389;28;20095;-66
2023/09/23 05:23:04;;;;;;;5.68;4.05;;;;;;;;;;5087649;28;21674;-66
2023/09/23 05:25:32;;;;;;;6.45;4.10;;;;;;;;;;5079611;28;20135;-66
2023/09/23 05:27:59;;;;;;;8.80;4.20;;;;;;;;;;5089678;28;20074;-66
2023/09/23 05:30:27;;;;;;;8.10;3.83;;;;;;;;;;5080423;28;20124;-66
2023/09/23 05:32:54;;;;;;;7.00;3.95;;;;;;;;;;5090031;28;20148;-66
2023/09/23 05:35:21;;;;;;;5.78;3.47;;;;;;;;;;5084385;28;20097;-66
2023/09/23 05:37:51;;;;;;;5.95;3.58;;;;;;;;;;5083940;28;20049;-66
2023/09/23 05:40:27;;;;;;;6.97;3.95;;;;;;;;;;5081202;28;20051;-66
2023/09/23 05:42:54;;;;;;;4.95;3.47;;;;;;;;;;5081302;28;20043;-66
2023/09/23 05:45:24;;;;;;;5.60;3.25;;;;;;;;;;5089089;28;20048;-66
2023/09/23 05:47:52;;;;;;;5.57;3.25;;;;;;;;;;5092569;28;20426;-66
2023/09/23 05:50:20;;;;;;;7.82;3.50;;;;;;;;;;5089316;28;20099;-66
2023/09/23 05:52:47;;;;;;;6.15;3.35;;;;;;;;;;5090415;28;20123;-66
2023/09/23 05:55:15;;;;;;;7.22;3.97;;;;;;;;;;5091615;28;20055;-66
2023/09/23 05:57:43;;;;;;;8.05;3.50;;;;;;;;;;5092634;28;20078;-66
2023/09/23 06:00:12;;;;;;;5.22;3.33;;;;;;;;;;5094148;28;20063;-66
2023/09/23 06:02:39;;;;;;;5.63;3.35;;;;;;;;;;5092061;28;20035;-66
2023/09/23 06:05:06;;;;;;;5.43;3.45;;;;;;;;;;5092882;28;20047;-66
2023/09/23 06:07:34;;;;;;;8.82;3.53;;;;;;;;;;5090202;28;20043;-66
2023/09/23 06:10:02;;;;;;;4.65;3.22;;;;;;;;;;5081624;28;20052;-66
2023/09/23 06:12:30;;;;;;;4.72;3.10;;;;;;;;;;5088936;28;20051;-66
2023/09/23 06:14:59;;;;;;;6.47;3.60;;;;;;;;;;5075925;28;20062;-66
2023/09/23 06:17:27;;;;;;;5.35;3.58;;;;;;;;;;5090793;28;20056;-66
2023/09/23 06:19:54;;;;;;;5.13;3.42;;;;;;;;;;5084654;28;20044;-66
2023/09/23 06:22:22;;;;;;;6.22;3.50;;;;;;;;;;5093230;28;20275;-66
2023/09/23 06:24:50;;;;;;;10.07;4.03;;;;;;;;;;5091657;28;20113;-66
2023/09/23 06:27:17;;;;;;;7.15;3.88;;;;;;;;;;5085044;28;20128;-66
2023/09/23 06:29:45;;;;;;;6.13;3.97;;;;;;;;;;5089909;28;20391;-66
2023/09/23 06:32:13;;;;;;;8.63;3.70;;;;;;;;;;5089974;28;20487;-65
2023/09/23 06:34:41;;;;;;;8.57;4.18;;;;;;;;;;5091267;28;20055;-66
2023/09/23 06:37:08;;;;;;;6.05;3.08;;;;;;;;;;5088812;28;20506;-66
2023/09/23 06:39:35;;;;;;;2.97;1.70;;;;;;;;;;5085804;28;20048;-66
2023/09/23 06:42:02;;;;;;;2.38;0.80;;;;;;;;;;5091027;28;20534;-66
2023/09/23 06:44:30;;;;;;;2.05;0.70;;;;;;;;;;5090673;28;20048;-65
2023/09/23 06:46:57;;;;;;;1.85;0.85;;;;;;;;;;5089323;28;20048;-66
2023/09/23 06:49:25;;;;;;;0.60;0.50;;;;;;;;;;5089947;28;20044;-66
2023/09/23 06:51:53;;;;;;;2.60;0.55;;;;;;;;;;5087434;28;20060;-66
2023/09/23 06:54:20;;;;;;;2.90;0.50;;;;;;;;;;5086458;28;20060;-66
2023/09/23 06:56:47;;;;;;;1.63;0.30;;;;;;;;;;5089476;28;20052;-66
2023/09/23 06:59:14;;;;;;;1.52;0.28;;;;;;;;;;5074836;28;20052;-66
2023/09/23 07:01:41;;;;;;;0.55;0.30;;;;;;;;;;5091276;28;20067;-66
2023/09/23 07:04:10;;;;;;;1.02;0.50;;;;;;;;;;5086901;28;20071;-66
2023/09/23 07:06:39;;;;;;;4.10;0.50;;;;;;;;;;5090945;28;20051;-66
2023/09/23 07:09:07;;;;;;;1.58;0.50;;;;;;;;;;5090068;28;20384;-66
2023/09/23 07:11:34;;;;;;;1.23;0.47;;;;;;;;;;5082374;28;20407;-66
2023/09/23 07:14:05;;;;;;;1.88;0.60;;;;;;;;;;5082481;28;20051;-66
2023/09/23 07:16:33;;;;;;;1.80;0.70;;;;;;;;;;5080832;28;20062;-66
2023/09/23 07:19:01;;;;;;;3.60;0.65;;;;;;;;;;5083925;28;20114;-66
2023/09/23 07:21:28;;;;;;;2.63;0.52;;;;;;;;;;5083676;28;20048;-66
2023/09/23 07:23:58;;;;;;;1.67;0.60;;;;;;;;;;5083051;28;20121;-66
2023/09/23 07:26:25;;;;;;;3.03;0.63;;;;;;;;;;5083475;28;20052;-66
2023/09/23 07:28:52;;;;;;;2.83;0.77;;;;;;;;;;5088000;28;20052;-66
2023/09/23 07:31:19;;;;;;;5.10;0.60;;;;;;;;;;5088215;28;20039;-65
2023/09/23 07:33:47;;;;;;;2.03;0.50;;;;;;;;;;5085658;28;20468;-65
2023/09/23 07:36:14;;;;;;;2.40;0.40;;;;;;;;;;5079313;28;20044;-66
2023/09/23 07:38:42;;;;;;;0.98;0.40;;;;;;;;;;5085167;28;20079;-66
2023/09/23 07:41:10;;;;;;;2.92;0.68;;;;;;;;;;5090243;28;20055;-66
2023/09/23 07:43:39;;;;;;;4.25;0.60;;;;;;;;;;5089594;28;20483;-66
2023/09/23 07:46:06;;;;;;;3.60;0.60;;;;;;;;;;5091316;28;20052;-66
2023/09/23 07:48:34;;;;;;;1.55;0.50;;;;;;;;;;5083456;28;20052;-66
2023/09/23 07:51:01;;;;;;;5.03;1.02;;;;;;;;;;5063290;28;20048;-66
2023/09/23 07:53:28;;;;;;;3.78;0.85;;;;;;;;;;5090729;28;20414;-66
2023/09/23 07:55:56;;;;;;;3.70;0.80;;;;;;;;;;5084131;28;20052;-66
2023/09/23 07:58:24;;;;;;;1.80;0.80;;;;;;;;;;5091550;28;20048;-66
2023/09/23 08:00:52;;;;;;;4.53;1.23;;;;;;;;;;5088774;28;20067;-66
2023/09/23 08:03:19;;;;;;;1.27;0.70;;;;;;;;;;5090600;28;20044;-66
2023/09/23 08:05:46;;;;;;;3.63;1.27;;;;;;;;;;5080948;28;20060;-66
2023/09/23 08:08:14;;;;;;;4.28;1.00;;;;;;;;;;5081055;28;20052;-66
2023/09/23 08:10:41;;;;;;;6.50;1.30;;;;;;;;;;5081164;28;20080;-66
2023/09/23 08:13:08;;;;;;;1.92;0.70;;;;;;;;;;5072250;28;20048;-65
2023/09/23 08:15:37;;;;;;;2.78;0.80;;;;;;;;;;5083910;28;20040;-65
2023/09/23 08:18:04;;;;;;;6.03;1.35;;;;;;;;;;5088680;28;20491;-66
2023/09/23 08:20:32;;;;;;;5.28;0.90;;;;;;;;;;5078412;28;20051;-66
2023/09/23 08:22:59;;;;;;;2.15;0.73;;;;;;;;;;5086513;28;20043;-66
2023/09/23 08:25:26;;;;;;;3.40;0.90;;;;;;;;;;5075646;28;20048;-66
2023/09/23 08:27:53;;;;;;;3.65;0.80;;;;;;;;;;5088688;28;20063;-65
2023/09/23 08:30:21;;;;;;;1.73;0.50;;;;;;;;;;5083373;28;20075;-66
2023/09/23 08:32:50;;;;;;;5.18;0.60;;;;;;;;;;5084058;28;20123;-65
2023/09/23 08:35:17;;;;;;;2.42;0.60;;;;;;;;;;5087954;28;21018;-66
2023/09/23 08:37:45;;;;;;;5.22;0.50;;;;;;;;;;5080109;28;20063;-66
2023/09/23 08:40:13;;;;;;;3.30;0.70;;;;;;;;;;5086251;28;20508;-66
2023/09/23 08:42:40;;;;;;;2.05;0.50;;;;;;;;;;5088961;28;20101;-65
2023/09/23 08:45:09;;;;;;;2.58;0.38;;;;;;;;;;5086021;28;20051;-66
2023/09/23 08:47:37;;;;;;;2.03;0.32;;;;;;;;;;5079590;28;20052;-66
2023/09/23 08:50:08;;;;;;;2.25;0.47;;;;;;;;;;5084516;28;20083;-65
2023/09/23 08:52:35;;;;;;;2.28;0.70;;;;;;;;;;5085560;28;20050;-65
2023/09/23 08:55:03;;;;;;;3.33;0.57;;;;;;;;;;5082433;28;20075;-66
2023/09/23 08:57:31;;;;;;;2.90;0.40;;;;;;;;;;5087461;28;20080;-66
2023/09/23 08:59:58;;;;;;;2.78;0.50;;;;;;;;;;5089660;28;20051;-66
2023/09/23 09:02:26;;;;;;;5.43;0.50;;;;;;;;;;5080130;28;20106;-65
2023/09/23 09:04:54;;;;;;;2.38;0.43;;;;;;;;;;5092000;28;20280;-65
2023/09/23 09:07:25;;;;;;;1.95;0.50;;;;;;;;;;5074012;28;20093;-66
2023/09/23 09:09:53;;;;;;;5.43;0.50;;;;;;;;;;5085277;28;20048;-65
2023/09/23 09:12:22;;;;;;;1.55;0.30;;;;;;;;;;5088417;28;20141;-66
2023/09/23 09:14:51;;;;;;;1.83;0.30;;;;;;;;;;5078405;28;20044;-66
2023/09/23 09:17:19;;;;;;;1.35;0.40;;;;;;;;;;5085170;28;20475;-66
2023/09/23 09:19:46;;;;;;;1.98;0.40;;;;;;;;;;5085267;28;20047;-66
2023/09/23 09:22:16;;;;;;;1.65;0.52;;;;;;;;;;5091575;28;20044;-65
2023/09/23 09:24:46;;;;;;;3.22;0.50;;;;;;;;;;5088342;28;20055;-65
2023/09/23 09:27:14;;;;;;;4.05;0.50;;;;;;;;;;5090127;28;20044;-66
2023/09/23 09:29:42;;;;;;;1.55;0.40;;;;;;;;;;5090427;28;20379;-65
2023/09/23 09:32:10;;;;;;;1.67;0.30;;;;;;;;;;5086792;28;20064;-65
2023/09/23 09:34:44;;;;;;;1.00;0.30;;;;;;;;;;5069145;28;20072;-65
2023/09/23 09:37:13;;;;;;;2.72;0.32;;;;;;;;;;5081997;28;20549;-65
2023/09/23 09:39:44;;;;;;;3.03;0.38;;;;;;;;;;5084386;28;20066;-66
2023/09/23 09:42:14;;;;;;;1.85;0.38;;;;;;;;;;5066968;28;20053;-65
2023/09/23 09:44:42;;;;;;;2.17;0.40;;;;;;;;;;5088028;28;20044;-66
2023/09/23 09:47:10;;;;;;;1.40;0.30;;;;;;;;;;5084155;28;20052;-66
2023/09/23 09:49:40;;;;;;;4.38;0.50;;;;;;;;;;5090806;28;20044;-66
2023/09/23 09:52:08;;;;;;;4.15;0.70;;;;;;;;;;5083991;28;20048;-66
2023/09/23 09:54:36;;;;;;;3.17;0.50;;;;;;;;;;5061425;28;20059;-66
2023/09/23 09:57:07;;;;;;;3.05;0.45;;;;;;;;;;5081231;28;20045;-66
2023/09/23 09:59:37;;;;;;;1.13;0.40;;;;;;;;;;5088903;28;20044;-66
2023/09/23 10:02:04;;;;;;;0.68;0.30;;;;;;;;;;5084822;28;20052;-65
2023/09/23 10:04:32;;;;;;;1.20;0.40;;;;;;;;;;5084232;28;20044;-65
2023/09/23 10:07:00;;;;;;;1.30;0.38;;;;;;;;;;5088826;28;20461;-65
2023/09/23 10:09:27;;;;;;;3.03;0.45;;;;;;;;;;5089942;28;20067;-65
2023/09/23 10:11:56;;;;;;;1.25;0.38;;;;;;;;;;5089236;28;20052;-65
2023/09/23 10:14:23;;;;;;;1.42;0.50;;;;;;;;;;5072826;28;20392;-66
2023/09/23 10:16:52;;;;;;;4.03;0.30;;;;;;;;;;5085557;28;20051;-66
2023/09/23 10:19:29;;;;;;;3.22;0.47;;;;;;;;;;5085078;28;20395;-66
2023/09/23 10:22:08;;;;;;;2.58;0.40;;;;;;;;;;5087336;28;20487;-65
2023/09/23 10:24:35;;;;;;;1.40;0.40;;;;;;;;;;5069335;28;20052;-65
2023/09/23 10:27:05;;;;;;;4.93;0.88;;;;;;;;;;5087183;28;20446;-65
2023/09/23 10:29:42;;;;;;;1.27;0.45;;;;;;;;;;5084731;28;20044;-66
2023/09/23 10:32:14;;;;;;;2.20;0.47;;;;;;;;;;5083767;28;20056;-66
2023/09/23 10:34:48;;;;;;;1.08;0.32;;;;;;;;;;5081596;28;20048;-66
2023/09/23 10:37:24;;;;;;;1.98;0.50;;;;;;;;;;5084745;28;20047;-66
2023/09/23 10:39:52;;;;;;;1.40;0.50;;;;;;;;;;5084091;28;20067;-66
2023/09/23 10:42:19;;;;;;;2.28;0.60;;;;;;;;;;5092402;28;20492;-66
2023/09/23 10:44:47;;;;;;;2.95;0.70;;;;;;;;;;5090519;28;20067;-66
2023/09/23 10:47:16;;;;;;;2.72;0.50;;;;;;;;;;5090610;28;20052;-66
2023/09/23 10:49:43;;;;;;;1.23;0.30;;;;;;;;;;5086857;28;20048;-66
2023/09/23 10:52:11;;;;;;;1.02;0.50;;;;;;;;;;5083854;28;20068;-66
2023/09/23 10:54:41;;;;;;;1.77;0.43;;;;;;;;;;5069670;28;20052;-66
2023/09/23 10:57:08;;;;;;;0.90;0.47;;;;;;;;;;5083918;28;20076;-66
2023/09/23 10:59:36;;;;;;;1.98;0.40;;;;;;;;;;5089009;28;20518;-66
2023/09/23 11:02:05;;;;;;;0.70;0.32;;;;;;;;;;5090095;28;20483;-66
2023/09/23 11:04:35;;;;;;;0.47;0.40;;;;;;;;;;5090671;28;20130;-66
2023/09/23 11:07:05;;;;;;;1.75;0.38;;;;;;;;;;5087389;28;20437;-66
2023/09/23 11:09:32;;;;;;;2.03;0.45;;;;;;;;;;5091596;28;20045;-66
2023/09/23 11:12:07;;;;;;;2.30;0.52;;;;;;;;;;5086263;28;20476;-66
2023/09/23 11:14:34;;;;;;;1.23;0.60;;;;;;;;;;5083179;28;20132;-66
2023/09/23 11:17:03;;;;;;;1.65;0.60;;;;;;;;;;5086487;28;20051;-66
2023/09/23 11:19:30;;;;;;;2.60;0.47;;;;;;;;;;5090256;28;20040;-66
2023/09/23 11:21:58;;;;;;;2.22;0.68;;;;;;;;;;5090640;28;20495;-66
2023/09/23 11:24:26;;;;;;;4.25;0.80;;;;;;;;;;5076526;28;20044;-66
2023/09/23 11:26:53;;;;;;;1.77;0.65;;;;;;;;;;5080354;28;20052;-66
2023/09/23 11:29:20;;;;;;;2.97;0.70;;;;;;;;;;5077577;28;20418;-66
2023/09/23 11:31:47;;;;;;;4.38;0.65;;;;;;;;;;5085567;28;20063;-66
2023/09/23 11:34:14;;;;;;;7.63;0.80;;;;;;;;;;5081971;28;20050;-66
2023/09/23 11:36:42;;;;;;;3.35;0.63;;;;;;;;;;5083351;28;20067;-66
2023/09/23 11:39:12;;;;;;;2.17;0.60;;;;;;;;;;5088229;28;20050;-66
2023/09/23 11:41:39;;;;;;;1.40;0.60;;;;;;;;;;5086834;28;20384;-66
2023/09/23 11:44:07;;;;;;;2.40;0.52;;;;;;;;;;5081338;28;20036;-66
2023/09/23 11:46:34;;;;;;;4.43;0.95;;;;;;;;;;5083408;28;20506;-66
2023/09/23 11:49:01;;;;;;;1.13;0.60;;;;;;;;;;5084623;28;20051;-66
2023/09/23 11:51:28;;;;;;;2.20;0.50;;;;;;;;;;5070410;28;20067;-66
2023/09/23 11:53:55;;;;;;;1.95;0.65;;;;;;;;;;5085942;28;20055;-66
2023/09/23 11:56:24;;;;;;;1.38;0.60;;;;;;;;;;5073187;28;20048;-66
2023/09/23 11:58:51;;;;;;;2.75;0.65;;;;;;;;;;5089104;28;20103;-66
2023/09/23 12:01:19;;;;;;;1.80;0.52;;;;;;;;;;5089777;28;20065;-66
2023/09/23 12:03:47;;;;;;;1.08;0.43;;;;;;;;;;5087984;28;20427;-66
2023/09/23 12:06:16;;;;;;;2.95;0.50;;;;;;;;;;5085228;28;20139;-67
2023/09/23 12:08:43;;;;;;;1.48;0.50;;;;;;;;;;5082089;28;20402;-67
2023/09/23 12:11:11;;;;;;;1.85;0.50;;;;;;;;;;5090650;28;20048;-67
2023/09/23 12:13:39;;;;;;;1.27;0.50;;;;;;;;;;5077089;28;20067;-67
2023/09/23 12:16:07;;;;;;;1.75;0.60;;;;;;;;;;5083724;28;20063;-67
2023/09/23 12:18:34;;;;;;;1.65;0.60;;;;;;;;;;5084529;28;20399;-67
2023/09/23 12:21:01;;;;;;;1.95;0.60;;;;;;;;;;5088407;28;20048;-67
2023/09/23 12:23:29;;;;;;;1.58;0.52;;;;;;;;;;5084148;28;20499;-67
2023/09/23 12:25:57;;;;;;;1.80;0.70;;;;;;;;;;5079085;28;20489;-67
2023/09/23 12:28:24;;;;;;;2.20;0.60;;;;;;;;;;5087707;28;20040;-67
2023/09/23 12:30:52;;;;;;;1.75;0.40;;;;;;;;;;5079843;28;20052;-67
2023/09/23 12:33:20;;;;;;;1.20;0.40;;;;;;;;;;5082326;28;20506;-67
2023/09/23 12:35:47;;;;;;;0.43;0.40;;;;;;;;;;5085441;28;20054;-67
2023/09/23 12:38:14;;;;;;;1.17;0.55;;;;;;;;;;5085905;28;20055;-67
2023/09/23 12:40:41;;;;;;;1.67;0.50;;;;;;;;;;5068441;28;20052;-67
2023/09/23 12:43:11;;;;;;;3.42;0.60;;;;;;;;;;5085915;28;20418;-67
2023/09/23 12:45:40;;;;;;;0.93;0.40;;;;;;;;;;5071630;28;20379;-67
2023/09/23 12:48:09;;;;;;;2.10;0.60;;;;;;;;;;5085003;28;20082;-67
2023/09/23 12:50:37;;;;;;;1.20;0.50;;;;;;;;;;5084999;28;20060;-67
2023/09/23 12:53:05;;;;;;;2.10;0.50;;;;;;;;;;5085557;28;20048;-67
2023/09/23 12:55:32;;;;;;;2.08;0.63;;;;;;;;;;5090359;28;20048;-67
2023/09/23 12:57:59;;;;;;;0.90;0.40;;;;;;;;;;5092443;28;20051;-67
2023/09/23 13:00:26;;;;;;;1.40;0.90;;;;;;;;;;5091366;28;20056;-67
2023/09/23 13:02:54;;;;;;;1.55;0.65;;;;;;;;;;5089654;28;20135;-67
2023/09/23 13:05:22;;;;;;;4.10;0.52;;;;;;;;;;5091245;28;20058;-67
2023/09/23 13:07:50;;;;;;;2.40;0.60;;;;;;;;;;5086912;28;20055;-67
2023/09/23 13:10:17;;;;;;;1.35;0.60;;;;;;;;;;5082418;28;20415;-66
2023/09/23 13:12:44;;;;;;;3.33;0.70;;;;;;;;;;5086482;28;20408;-67
2023/09/23 13:15:12;;;;;;;3.90;0.85;;;;;;;;;;5087566;28;20054;-66
2023/09/23 13:17:39;;;;;;;4.32;0.70;;;;;;;;;;5089572;28;20051;-67
2023/09/23 13:20:07;;;;;;;0.77;0.45;;;;;;;;;;5068681;28;20043;-67
2023/09/23 13:22:35;;;;;;;6.32;0.60;;;;;;;;;;5076046;28;20062;-67
2023/09/23 13:25:03;;;;;;;1.13;0.30;;;;;;;;;;5091900;28;20115;-67
2023/09/23 13:27:31;;;;;;;1.05;0.30;;;;;;;;;;5092608;28;20040;-67
2023/09/23 13:29:59;;;;;;;1.17;0.35;;;;;;;;;;5092215;28;20051;-67
2023/09/23 13:32:26;;;;;;;2.47;0.50;;;;;;;;;;5083866;28;20436;-67
2023/09/23 13:34:53;;;;;;;2.13;0.70;;;;;;;;;;5086789;28;20059;-67
2023/09/23 13:37:20;;;;;;;1.20;0.38;;;;;;;;;;5085746;28;20451;-67
2023/09/23 13:39:49;;;;;;;1.13;0.30;;;;;;;;;;5090700;28;20051;-67
2023/09/23 13:42:16;;;;;;;1.23;0.30;;;;;;;;;;5091117;28;20522;-67
2023/09/23 13:44:49;;;;;;;0.73;0.38;;;;;;;;;;5091227;28;20044;-67
2023/09/23 13:47:16;;;;;;;;;;;;;;;;;;5092015;28;20056;-67
2023/09/23 13:49:44;;;;;;;1.40;0.40;;;;;;;;;;5089350;28;19974;-67
2023/09/23 13:52:11;;;;;;;3.80;0.60;;;;;;;;;;5091476;28;20059;-67
2023/09/23 13:54:38;;;;;;;1.75;0.30;;;;;;;;;;5088504;28;20040;-67
2023/09/23 13:57:07;;;;;;;0.88;0.35;;;;;;;;;;5084981;28;20563;-67
2023/09/23 13:59:34;;;;;;;0.93;0.40;;;;;;;;;;5085123;28;20055;-67
2023/09/23 14:02:02;;;;;;;0.20;0.20;;;;;;;;;;5091205;28;20044;-67
2023/09/23 14:04:29;;;;;;;2.20;0.40;;;;;;;;;;5073764;28;20052;-67
2023/09/23 14:06:57;;;;;;;1.67;0.50;;;;;;;;;;5088041;28;20059;-67
2023/09/23 14:09:24;;;;;;;0.65;0.38;;;;;;;;;;5085835;28;20523;-68
2023/09/23 14:11:52;;;;;;;1.02;0.45;;;;;;;;;;5087051;28;20437;-67
2023/09/23 14:14:20;;;;;;;0.90;0.40;;;;;;;;;;5092609;28;20048;-68
2023/09/23 14:16:49;;;;;;;1.33;0.40;;;;;;;;;;5086921;28;20059;-68
2023/09/23 14:19:16;;;;;;;1.83;0.52;;;;;;;;;;5070643;28;20407;-68
2023/09/23 14:21:43;;;;;;;0.88;0.40;;;;;;;;;;5090511;28;20044;-67
2023/09/23 14:24:11;;;;;;;1.77;0.40;;;;;;;;;;5091630;28;20511;-67
2023/09/23 14:26:38;;;;;;;1.08;0.40;;;;;;;;;;5070828;28;20044;-67
2023/09/23 14:29:05;;;;;;;2.90;0.55;;;;;;;;;;5091771;28;20126;-67
2023/09/23 14:31:34;;;;;;;2.28;0.38;;;;;;;;;;5091359;28;20052;-67
2023/09/23 14:34:03;;;;;;;2.42;0.50;;;;;;;;;;5086527;28;20046;-67
2023/09/23 14:36:31;;;;;;;3.42;0.50;;;;;;;;;;5087623;28;20083;-67
2023/09/23 14:39:03;;;;;;;2.25;0.40;;;;;;;;;;5085608;28;20054;-67
2023/09/23 14:41:33;;;;;;;1.95;0.47;;;;;;;;;;5092928;28;20040;-67
2023/09/23 14:44:01;;;;;;;1.33;0.40;;;;;;;;;;5089244;28;20047;-67
2023/09/23 14:46:28;;;;;;;1.52;0.40;;;;;;;;;;5087415;28;20044;-67
2023/09/23 14:48:56;;;;;;;0.55;0.40;;;;;;;;;;5089358;28;20048;-67